sensor_id;sensor_type;location;lat;lon;timestamp;temperature;humidity
47590;DHT22;33316;52.298;9.056;2022-08-16T00:00:24;24.60;61.10
47590;DHT22;33316;52.298;9.056;2022-08-16T00:02:50;24.60;61.20
47590;DHT22;33316;52.298;9.056;2022-08-16T00:05:16;24.60;61.20
47590;DHT22;33316;52.298;9.056;2022-08-16T00:07:43;24.50;61.30
47590;DHT22;33316;52.298;9.056;2022-08-16T00:10:11;24.50;61.20
47590;DHT22;33316;52.298;9.056;2022-08-16T00:12:37;24.50;61.30
47590;DHT22;33316;52.298;9.056;2022-08-16T00:15:14;24.50;61.30
47590;DHT22;33316;52.298;9.056;2022-08-16T00:17:40;24.50;61.50
47590;DHT22;33316;52.298;9.056;2022-08-16T00:20:06;24.40;61.50
47590;DHT22;33316;52.298;9.056;2022-08-16T00:22:35;24.40;61.60
47590;DHT22;33316;52.298;9.056;2022-08-16T00:25:01;24.40;61.60
47590;DHT22;33316;52.298;9.056;2022-08-16T00:27:26;24.40;61.60
47590;DHT22;33316;52.298;9.056;2022-08-16T00:29:52;24.40;61.70
47590;DHT22;33316;52.298;9.056;2022-08-16T00:32:19;24.30;61.70
47590;DHT22;33316;52.298;9.056;2022-08-16T00:34:44;24.30;61.80
47590;DHT22;33316;52.298;9.056;2022-08-16T00:37:11;24.20;61.90
47590;DHT22;33316;52.298;9.056;2022-08-16T00:39:36;24.20;62.00
47590;DHT22;33316;52.298;9.056;2022-08-16T00:42:02;24.20;62.10
47590;DHT22;33316;52.298;9.056;2022-08-16T00:44:28;24.10;62.20
47590;DHT22;33316;52.298;9.056;2022-08-16T00:47:04;24.10;62.40
47590;DHT22;33316;52.298;9.056;2022-08-16T00:49:32;24.00;62.40
47590;DHT22;33316;52.298;9.056;2022-08-16T00:51:58;24.00;62.40
47590;DHT22;33316;52.298;9.056;2022-08-16T00:54:27;24.00;62.40
47590;DHT22;33316;52.298;9.056;2022-08-16T00:56:55;24.00;62.50
47590;DHT22;33316;52.298;9.056;2022-08-16T00:59:25;23.90;62.40
47590;DHT22;33316;52.298;9.056;2022-08-16T01:01:52;23.90;62.40
47590;DHT22;33316;52.298;9.056;2022-08-16T01:04:21;23.90;62.40
47590;DHT22;33316;52.298;9.056;2022-08-16T01:06:48;23.90;62.40
47590;DHT22;33316;52.298;9.056;2022-08-16T01:09:14;23.90;62.30
47590;DHT22;33316;52.298;9.056;2022-08-16T01:11:39;23.80;62.30
47590;DHT22;33316;52.298;9.056;2022-08-16T01:14:20;23.90;62.40
47590;DHT22;33316;52.298;9.056;2022-08-16T01:16:47;23.80;62.40
47590;DHT22;33316;52.298;9.056;2022-08-16T01:19:25;23.80;62.40
47590;DHT22;33316;52.298;9.056;2022-08-16T01:21:59;23.70;62.40
47590;DHT22;33316;52.298;9.056;2022-08-16T01:24:30;23.70;62.50
47590;DHT22;33316;52.298;9.056;2022-08-16T01:27:02;23.70;62.50
47590;DHT22;33316;52.298;9.056;2022-08-16T01:29:37;23.70;62.60
47590;DHT22;33316;52.298;9.056;2022-08-16T01:32:03;23.70;62.60
47590;DHT22;33316;52.298;9.056;2022-08-16T01:34:29;23.60;62.60
47590;DHT22;33316;52.298;9.056;2022-08-16T01:37:05;23.60;62.50
47590;DHT22;33316;52.298;9.056;2022-08-16T01:39:32;23.70;62.70
47590;DHT22;33316;52.298;9.056;2022-08-16T01:41:58;23.60;62.60
47590;DHT22;33316;52.298;9.056;2022-08-16T01:44:24;23.70;62.60
47590;DHT22;33316;52.298;9.056;2022-08-16T01:46:50;23.60;62.50
47590;DHT22;33316;52.298;9.056;2022-08-16T01:49:41;23.60;62.40
47590;DHT22;33316;52.298;9.056;2022-08-16T01:52:11;23.60;62.60
47590;DHT22;33316;52.298;9.056;2022-08-16T01:54:37;23.60;62.60
47590;DHT22;33316;52.298;9.056;2022-08-16T01:57:03;23.60;62.60
47590;DHT22;33316;52.298;9.056;2022-08-16T01:59:30;23.60;62.70
47590;DHT22;33316;52.298;9.056;2022-08-16T02:01:56;23.50;62.90
47590;DHT22;33316;52.298;9.056;2022-08-16T02:04:23;23.50;63.00
47590;DHT22;33316;52.298;9.056;2022-08-16T02:06:49;23.40;63.20
47590;DHT22;33316;52.298;9.056;2022-08-16T02:09:17;23.40;63.30
47590;DHT22;33316;52.298;9.056;2022-08-16T02:11:47;23.40;63.50
47590;DHT22;33316;52.298;9.056;2022-08-16T02:14:13;23.30;63.60
47590;DHT22;33316;52.298;9.056;2022-08-16T02:16:39;23.30;63.80
47590;DHT22;33316;52.298;9.056;2022-08-16T02:19:07;23.30;63.90
47590;DHT22;33316;52.298;9.056;2022-08-16T02:21:33;23.20;63.90
47590;DHT22;33316;52.298;9.056;2022-08-16T02:23:58;23.10;64.00
47590;DHT22;33316;52.298;9.056;2022-08-16T02:26:24;23.20;64.20
47590;DHT22;33316;52.298;9.056;2022-08-16T02:28:50;23.10;64.20
47590;DHT22;33316;52.298;9.056;2022-08-16T02:31:17;23.10;64.30
47590;DHT22;33316;52.298;9.056;2022-08-16T02:33:43;23.10;64.40
47590;DHT22;33316;52.298;9.056;2022-08-16T02:36:10;23.00;64.50
47590;DHT22;33316;52.298;9.056;2022-08-16T02:38:36;23.00;64.50
47590;DHT22;33316;52.298;9.056;2022-08-16T02:41:04;23.00;64.50
47590;DHT22;33316;52.298;9.056;2022-08-16T02:43:31;23.00;64.70
47590;DHT22;33316;52.298;9.056;2022-08-16T02:45:58;22.90;64.60
47590;DHT22;33316;52.298;9.056;2022-08-16T02:48:24;22.90;64.60
47590;DHT22;33316;52.298;9.056;2022-08-16T02:50:51;22.90;64.80
47590;DHT22;33316;52.298;9.056;2022-08-16T02:53:16;22.80;64.90
47590;DHT22;33316;52.298;9.056;2022-08-16T02:55:42;22.80;65.00
47590;DHT22;33316;52.298;9.056;2022-08-16T02:58:08;22.80;65.00
47590;DHT22;33316;52.298;9.056;2022-08-16T03:00:33;22.80;65.20
47590;DHT22;33316;52.298;9.056;2022-08-16T03:02:59;22.70;65.10
47590;DHT22;33316;52.298;9.056;2022-08-16T03:05:25;22.70;65.20
47590;DHT22;33316;52.298;9.056;2022-08-16T03:07:51;22.70;65.30
47590;DHT22;33316;52.298;9.056;2022-08-16T03:10:17;22.70;65.30
47590;DHT22;33316;52.298;9.056;2022-08-16T03:12:42;22.70;65.40
47590;DHT22;33316;52.298;9.056;2022-08-16T03:15:10;22.70;65.50
47590;DHT22;33316;52.298;9.056;2022-08-16T03:17:37;22.60;65.60
47590;DHT22;33316;52.298;9.056;2022-08-16T03:20:06;22.60;65.70
47590;DHT22;33316;52.298;9.056;2022-08-16T03:22:33;22.60;65.80
47590;DHT22;33316;52.298;9.056;2022-08-16T03:25:00;22.60;66.00
47590;DHT22;33316;52.298;9.056;2022-08-16T03:27:28;22.60;65.90
47590;DHT22;33316;52.298;9.056;2022-08-16T03:29:54;22.60;66.00
47590;DHT22;33316;52.298;9.056;2022-08-16T03:32:19;22.60;66.00
47590;DHT22;33316;52.298;9.056;2022-08-16T03:34:45;22.60;66.00
47590;DHT22;33316;52.298;9.056;2022-08-16T03:37:12;22.60;66.00
47590;DHT22;33316;52.298;9.056;2022-08-16T03:39:38;22.50;66.10
47590;DHT22;33316;52.298;9.056;2022-08-16T03:42:04;22.50;66.20
47590;DHT22;33316;52.298;9.056;2022-08-16T03:44:30;22.50;66.20
47590;DHT22;33316;52.298;9.056;2022-08-16T03:46:56;22.50;66.30
47590;DHT22;33316;52.298;9.056;2022-08-16T03:49:22;22.50;66.40
47590;DHT22;33316;52.298;9.056;2022-08-16T03:51:48;22.50;66.40
47590;DHT22;33316;52.298;9.056;2022-08-16T03:54:13;22.50;66.40
47590;DHT22;33316;52.298;9.056;2022-08-16T03:56:40;22.40;66.20
47590;DHT22;33316;52.298;9.056;2022-08-16T03:59:05;22.40;66.20
47590;DHT22;33316;52.298;9.056;2022-08-16T04:01:31;22.40;66.20
47590;DHT22;33316;52.298;9.056;2022-08-16T04:03:57;22.30;66.30
47590;DHT22;33316;52.298;9.056;2022-08-16T04:06:22;22.30;66.30
47590;DHT22;33316;52.298;9.056;2022-08-16T04:08:48;22.30;66.30
47590;DHT22;33316;52.298;9.056;2022-08-16T04:11:14;22.30;66.30
47590;DHT22;33316;52.298;9.056;2022-08-16T04:13:40;22.30;66.40
47590;DHT22;33316;52.298;9.056;2022-08-16T04:16:06;22.20;66.40
47590;DHT22;33316;52.298;9.056;2022-08-16T04:18:32;22.20;66.50
47590;DHT22;33316;52.298;9.056;2022-08-16T04:20:57;22.20;66.50
47590;DHT22;33316;52.298;9.056;2022-08-16T04:23:23;22.20;66.50
47590;DHT22;33316;52.298;9.056;2022-08-16T04:25:49;22.10;66.40
47590;DHT22;33316;52.298;9.056;2022-08-16T04:28:15;22.10;66.50
47590;DHT22;33316;52.298;9.056;2022-08-16T04:30:41;22.20;66.60
47590;DHT22;33316;52.298;9.056;2022-08-16T04:33:07;22.10;67.50
47590;DHT22;33316;52.298;9.056;2022-08-16T04:35:33;22.20;66.80
47590;DHT22;33316;52.298;9.056;2022-08-16T04:37:58;22.10;66.70
47590;DHT22;33316;52.298;9.056;2022-08-16T04:40:25;22.10;66.70
47590;DHT22;33316;52.298;9.056;2022-08-16T04:42:51;22.10;66.80
47590;DHT22;33316;52.298;9.056;2022-08-16T04:45:17;22.10;66.80
47590;DHT22;33316;52.298;9.056;2022-08-16T04:47:43;22.10;66.80
47590;DHT22;33316;52.298;9.056;2022-08-16T04:50:22;22.00;66.90
47590;DHT22;33316;52.298;9.056;2022-08-16T04:52:49;22.10;67.10
47590;DHT22;33316;52.298;9.056;2022-08-16T04:55:20;22.10;67.10
47590;DHT22;33316;52.298;9.056;2022-08-16T04:57:48;22.10;67.00
47590;DHT22;33316;52.298;9.056;2022-08-16T05:00:18;22.10;66.90
47590;DHT22;33316;52.298;9.056;2022-08-16T05:02:44;22.10;66.80
47590;DHT22;33316;52.298;9.056;2022-08-16T05:05:11;22.10;66.70
47590;DHT22;33316;52.298;9.056;2022-08-16T05:07:38;22.10;66.70
47590;DHT22;33316;52.298;9.056;2022-08-16T05:10:06;22.10;66.80
47590;DHT22;33316;52.298;9.056;2022-08-16T05:12:32;22.10;66.80
47590;DHT22;33316;52.298;9.056;2022-08-16T05:14:59;22.10;66.70
47590;DHT22;33316;52.298;9.056;2022-08-16T05:17:24;22.20;66.90
47590;DHT22;33316;52.298;9.056;2022-08-16T05:19:50;22.20;66.80
47590;DHT22;33316;52.298;9.056;2022-08-16T05:22:16;22.10;66.90
47590;DHT22;33316;52.298;9.056;2022-08-16T05:24:42;22.10;66.90
47590;DHT22;33316;52.298;9.056;2022-08-16T05:27:07;22.20;67.00
47590;DHT22;33316;52.298;9.056;2022-08-16T05:29:34;22.20;66.80
47590;DHT22;33316;52.298;9.056;2022-08-16T05:32:00;22.30;66.60
47590;DHT22;33316;52.298;9.056;2022-08-16T05:34:26;22.40;66.50
47590;DHT22;33316;52.298;9.056;2022-08-16T05:36:52;22.50;66.40
47590;DHT22;33316;52.298;9.056;2022-08-16T05:39:22;22.60;66.00
47590;DHT22;33316;52.298;9.056;2022-08-16T05:41:49;22.80;65.70
47590;DHT22;33316;52.298;9.056;2022-08-16T05:44:17;22.80;66.00
47590;DHT22;33316;52.298;9.056;2022-08-16T05:46:43;22.80;65.00
47590;DHT22;33316;52.298;9.056;2022-08-16T05:49:10;22.80;64.90
47590;DHT22;33316;52.298;9.056;2022-08-16T05:51:38;22.90;64.90
47590;DHT22;33316;52.298;9.056;2022-08-16T05:54:04;22.90;64.90
47590;DHT22;33316;52.298;9.056;2022-08-16T05:56:30;22.90;64.80
47590;DHT22;33316;52.298;9.056;2022-08-16T05:58:55;23.00;64.90
47590;DHT22;33316;52.298;9.056;2022-08-16T06:01:21;23.10;64.80
47590;DHT22;33316;52.298;9.056;2022-08-16T06:03:46;23.20;64.60
47590;DHT22;33316;52.298;9.056;2022-08-16T06:06:12;23.40;64.40
47590;DHT22;33316;52.298;9.056;2022-08-16T06:08:37;23.60;64.10
47590;DHT22;33316;52.298;9.056;2022-08-16T06:11:03;23.80;63.50
47590;DHT22;33316;52.298;9.056;2022-08-16T06:13:29;23.90;63.60
47590;DHT22;33316;52.298;9.056;2022-08-16T06:15:55;24.00;62.40
47590;DHT22;33316;52.298;9.056;2022-08-16T06:18:21;24.20;62.00
47590;DHT22;33316;52.298;9.056;2022-08-16T06:20:47;24.40;61.70
47590;DHT22;33316;52.298;9.056;2022-08-16T06:23:12;24.50;61.10
47590;DHT22;33316;52.298;9.056;2022-08-16T06:25:38;24.60;61.40
47590;DHT22;33316;52.298;9.056;2022-08-16T06:28:04;24.70;60.40
47590;DHT22;33316;52.298;9.056;2022-08-16T06:30:30;24.80;60.10
47590;DHT22;33316;52.298;9.056;2022-08-16T06:32:57;24.80;59.90
47590;DHT22;33316;52.298;9.056;2022-08-16T06:35:23;24.90;59.90
47590;DHT22;33316;52.298;9.056;2022-08-16T06:37:50;25.00;59.70
47590;DHT22;33316;52.298;9.056;2022-08-16T06:40:15;25.10;59.50
47590;DHT22;33316;52.298;9.056;2022-08-16T06:42:41;25.20;59.20
47590;DHT22;33316;52.298;9.056;2022-08-16T06:45:06;25.30;59.20
47590;DHT22;33316;52.298;9.056;2022-08-16T06:47:32;25.40;58.80
47590;DHT22;33316;52.298;9.056;2022-08-16T06:49:58;25.60;58.60
47590;DHT22;33316;52.298;9.056;2022-08-16T06:52:23;25.60;58.50
47590;DHT22;33316;52.298;9.056;2022-08-16T06:54:49;25.80;58.20
47590;DHT22;33316;52.298;9.056;2022-08-16T06:57:14;25.80;58.70
47590;DHT22;33316;52.298;9.056;2022-08-16T06:59:42;25.90;57.90
47590;DHT22;33316;52.298;9.056;2022-08-16T07:02:08;26.00;57.80
47590;DHT22;33316;52.298;9.056;2022-08-16T07:04:33;26.10;57.60
47590;DHT22;33316;52.298;9.056;2022-08-16T07:07:00;26.20;57.40
47590;DHT22;33316;52.298;9.056;2022-08-16T07:09:26;26.20;57.10
47590;DHT22;33316;52.298;9.056;2022-08-16T07:11:51;26.30;57.10
47590;DHT22;33316;52.298;9.056;2022-08-16T07:14:17;26.40;57.00
47590;DHT22;33316;52.298;9.056;2022-08-16T07:16:42;26.40;57.60
47590;DHT22;33316;52.298;9.056;2022-08-16T07:19:08;26.50;56.80
47590;DHT22;33316;52.298;9.056;2022-08-16T07:21:34;26.60;56.60
47590;DHT22;33316;52.298;9.056;2022-08-16T07:24:01;26.60;56.40
47590;DHT22;33316;52.298;9.056;2022-08-16T07:26:27;26.70;56.30
47590;DHT22;33316;52.298;9.056;2022-08-16T07:28:53;26.70;56.20
47590;DHT22;33316;52.298;9.056;2022-08-16T07:31:20;26.80;56.00
47590;DHT22;33316;52.298;9.056;2022-08-16T07:33:46;26.80;55.80
47590;DHT22;33316;52.298;9.056;2022-08-16T07:36:13;26.70;55.70
47590;DHT22;33316;52.298;9.056;2022-08-16T07:38:40;26.70;55.80
47590;DHT22;33316;52.298;9.056;2022-08-16T07:41:07;26.70;55.90
47590;DHT22;33316;52.298;9.056;2022-08-16T07:43:33;26.80;55.70
47590;DHT22;33316;52.298;9.056;2022-08-16T07:45:59;26.80;55.50
47590;DHT22;33316;52.298;9.056;2022-08-16T07:48:25;26.90;55.50
47590;DHT22;33316;52.298;9.056;2022-08-16T07:50:51;27.00;55.30
47590;DHT22;33316;52.298;9.056;2022-08-16T07:53:17;27.10;55.40
47590;DHT22;33316;52.298;9.056;2022-08-16T07:55:42;27.20;55.10
47590;DHT22;33316;52.298;9.056;2022-08-16T07:58:08;27.30;55.00
47590;DHT22;33316;52.298;9.056;2022-08-16T08:00:35;27.40;55.00
47590;DHT22;33316;52.298;9.056;2022-08-16T08:03:01;27.50;54.70
47590;DHT22;33316;52.298;9.056;2022-08-16T08:05:27;27.50;54.50
47590;DHT22;33316;52.298;9.056;2022-08-16T08:07:53;27.60;54.30
47590;DHT22;33316;52.298;9.056;2022-08-16T08:10:20;27.70;54.40
47590;DHT22;33316;52.298;9.056;2022-08-16T08:12:50;27.70;54.10
47590;DHT22;33316;52.298;9.056;2022-08-16T08:15:16;27.80;53.80
47590;DHT22;33316;52.298;9.056;2022-08-16T08:17:42;27.80;53.90
47590;DHT22;33316;52.298;9.056;2022-08-16T08:20:12;27.90;53.90
47590;DHT22;33316;52.298;9.056;2022-08-16T08:22:38;27.90;53.80
47590;DHT22;33316;52.298;9.056;2022-08-16T08:25:05;28.00;53.60
47590;DHT22;33316;52.298;9.056;2022-08-16T08:27:31;28.00;53.50
47590;DHT22;33316;52.298;9.056;2022-08-16T08:29:57;28.10;53.40
47590;DHT22;33316;52.298;9.056;2022-08-16T08:32:23;28.10;53.10
47590;DHT22;33316;52.298;9.056;2022-08-16T08:34:49;28.10;52.90
47590;DHT22;33316;52.298;9.056;2022-08-16T08:37:15;28.10;53.00
47590;DHT22;33316;52.298;9.056;2022-08-16T08:39:41;28.20;53.00
47590;DHT22;33316;52.298;9.056;2022-08-16T08:42:07;28.20;52.80
47590;DHT22;33316;52.298;9.056;2022-08-16T08:44:33;28.30;52.90
47590;DHT22;33316;52.298;9.056;2022-08-16T08:47:03;28.30;52.80
47590;DHT22;33316;52.298;9.056;2022-08-16T08:49:30;28.40;52.90
47590;DHT22;33316;52.298;9.056;2022-08-16T08:51:56;28.40;52.60
47590;DHT22;33316;52.298;9.056;2022-08-16T08:54:22;28.50;52.40
47590;DHT22;33316;52.298;9.056;2022-08-16T08:56:48;28.60;52.40
47590;DHT22;33316;52.298;9.056;2022-08-16T08:59:16;28.60;51.90
47590;DHT22;33316;52.298;9.056;2022-08-16T09:01:42;28.60;51.30
47590;DHT22;33316;52.298;9.056;2022-08-16T09:04:08;28.70;51.30
47590;DHT22;33316;52.298;9.056;2022-08-16T09:06:34;28.70;51.50
47590;DHT22;33316;52.298;9.056;2022-08-16T09:09:00;28.70;51.30
47590;DHT22;33316;52.298;9.056;2022-08-16T09:11:26;28.70;51.30
47590;DHT22;33316;52.298;9.056;2022-08-16T09:13:52;28.80;51.30
47590;DHT22;33316;52.298;9.056;2022-08-16T09:16:18;28.80;51.40
47590;DHT22;33316;52.298;9.056;2022-08-16T09:18:44;28.90;52.10
47590;DHT22;33316;52.298;9.056;2022-08-16T09:21:11;28.90;51.00
47590;DHT22;33316;52.298;9.056;2022-08-16T09:23:37;29.00;51.00
47590;DHT22;33316;52.298;9.056;2022-08-16T09:26:05;29.10;50.80
47590;DHT22;33316;52.298;9.056;2022-08-16T09:28:32;29.00;50.50
47590;DHT22;33316;52.298;9.056;2022-08-16T09:30:58;29.10;50.70
47590;DHT22;33316;52.298;9.056;2022-08-16T09:33:24;29.10;50.50
47590;DHT22;33316;52.298;9.056;2022-08-16T09:35:50;29.10;50.10
47590;DHT22;33316;52.298;9.056;2022-08-16T09:38:15;29.10;49.90
47590;DHT22;33316;52.298;9.056;2022-08-16T09:40:42;29.20;50.00
47590;DHT22;33316;52.298;9.056;2022-08-16T09:43:10;29.10;49.70
47590;DHT22;33316;52.298;9.056;2022-08-16T09:45:36;29.20;49.60
47590;DHT22;33316;52.298;9.056;2022-08-16T09:48:06;29.30;49.60
47590;DHT22;33316;52.298;9.056;2022-08-16T09:50:33;29.20;49.50
47590;DHT22;33316;52.298;9.056;2022-08-16T09:53:00;29.30;49.80
47590;DHT22;33316;52.298;9.056;2022-08-16T09:55:26;29.30;50.00
47590;DHT22;33316;52.298;9.056;2022-08-16T09:57:51;29.30;49.60
47590;DHT22;33316;52.298;9.056;2022-08-16T10:00:17;29.30;49.40
47590;DHT22;33316;52.298;9.056;2022-08-16T10:02:43;29.30;49.10
47590;DHT22;33316;52.298;9.056;2022-08-16T10:05:09;29.30;49.00
47590;DHT22;33316;52.298;9.056;2022-08-16T10:07:35;29.30;49.10
47590;DHT22;33316;52.298;9.056;2022-08-16T10:10:02;29.30;49.20
47590;DHT22;33316;52.298;9.056;2022-08-16T10:12:28;29.30;49.20
47590;DHT22;33316;52.298;9.056;2022-08-16T10:15:16;29.30;49.00
47590;DHT22;33316;52.298;9.056;2022-08-16T10:17:43;29.40;49.00
47590;DHT22;33316;52.298;9.056;2022-08-16T10:20:10;29.40;48.70
47590;DHT22;33316;52.298;9.056;2022-08-16T10:22:36;29.40;48.60
47590;DHT22;33316;52.298;9.056;2022-08-16T10:25:03;29.40;48.50
47590;DHT22;33316;52.298;9.056;2022-08-16T10:27:29;29.50;48.40
47590;DHT22;33316;52.298;9.056;2022-08-16T10:29:55;29.50;48.00
47590;DHT22;33316;52.298;9.056;2022-08-16T10:32:21;29.50;48.10
47590;DHT22;33316;52.298;9.056;2022-08-16T10:34:46;29.50;48.20
47590;DHT22;33316;52.298;9.056;2022-08-16T10:37:12;29.60;48.00
47590;DHT22;33316;52.298;9.056;2022-08-16T10:39:37;29.60;48.00
47590;DHT22;33316;52.298;9.056;2022-08-16T10:42:05;29.60;48.00
47590;DHT22;33316;52.298;9.056;2022-08-16T10:44:31;29.60;47.60
47590;DHT22;33316;52.298;9.056;2022-08-16T10:46:56;29.60;47.80
47590;DHT22;33316;52.298;9.056;2022-08-16T10:49:22;29.60;47.40
47590;DHT22;33316;52.298;9.056;2022-08-16T10:51:48;29.60;47.70
47590;DHT22;33316;52.298;9.056;2022-08-16T10:54:13;29.60;47.80
47590;DHT22;33316;52.298;9.056;2022-08-16T10:56:39;29.60;47.80
47590;DHT22;33316;52.298;9.056;2022-08-16T10:59:05;29.70;47.70
47590;DHT22;33316;52.298;9.056;2022-08-16T11:01:31;29.70;47.40
47590;DHT22;33316;52.298;9.056;2022-08-16T11:03:56;29.80;47.40
47590;DHT22;33316;52.298;9.056;2022-08-16T11:06:22;29.80;47.20
47590;DHT22;33316;52.298;9.056;2022-08-16T11:08:49;29.90;47.10
47590;DHT22;33316;52.298;9.056;2022-08-16T11:11:15;30.00;47.40
47590;DHT22;33316;52.298;9.056;2022-08-16T11:13:41;30.00;47.30
47590;DHT22;33316;52.298;9.056;2022-08-16T11:16:07;30.00;46.90
47590;DHT22;33316;52.298;9.056;2022-08-16T11:18:33;30.00;46.90
47590;DHT22;33316;52.298;9.056;2022-08-16T11:20:59;30.10;46.60
47590;DHT22;33316;52.298;9.056;2022-08-16T11:23:26;30.10;46.30
47590;DHT22;33316;52.298;9.056;2022-08-16T11:25:53;30.10;46.10
47590;DHT22;33316;52.298;9.056;2022-08-16T11:28:19;30.20;46.00
47590;DHT22;33316;52.298;9.056;2022-08-16T11:30:45;30.20;45.70
47590;DHT22;33316;52.298;9.056;2022-08-16T11:33:11;30.30;45.60
47590;DHT22;33316;52.298;9.056;2022-08-16T11:35:38;30.30;45.20
47590;DHT22;33316;52.298;9.056;2022-08-16T11:38:11;30.40;45.20
47590;DHT22;33316;52.298;9.056;2022-08-16T11:40:51;30.40;44.30
47590;DHT22;33316;52.298;9.056;2022-08-16T11:43:26;30.40;44.40
47590;DHT22;33316;52.298;9.056;2022-08-16T11:45:54;30.50;44.70
47590;DHT22;33316;52.298;9.056;2022-08-16T11:48:23;30.50;44.60
47590;DHT22;33316;52.298;9.056;2022-08-16T11:50:49;30.50;44.20
47590;DHT22;33316;52.298;9.056;2022-08-16T11:53:15;30.50;44.50
47590;DHT22;33316;52.298;9.056;2022-08-16T11:55:42;30.50;44.80
47590;DHT22;33316;52.298;9.056;2022-08-16T11:58:08;30.60;44.90
47590;DHT22;33316;52.298;9.056;2022-08-16T12:00:35;30.70;44.40
47590;DHT22;33316;52.298;9.056;2022-08-16T12:03:02;30.70;44.10
47590;DHT22;33316;52.298;9.056;2022-08-16T12:05:29;30.70;43.50
47590;DHT22;33316;52.298;9.056;2022-08-16T12:07:56;30.80;43.80
47590;DHT22;33316;52.298;9.056;2022-08-16T12:10:24;30.90;43.90
47590;DHT22;33316;52.298;9.056;2022-08-16T12:12:50;30.90;43.50
47590;DHT22;33316;52.298;9.056;2022-08-16T12:15:16;30.90;43.20
47590;DHT22;33316;52.298;9.056;2022-08-16T12:17:42;30.90;43.20
47590;DHT22;33316;52.298;9.056;2022-08-16T12:20:12;31.00;44.40
47590;DHT22;33316;52.298;9.056;2022-08-16T12:22:38;31.00;42.70
47590;DHT22;33316;52.298;9.056;2022-08-16T12:25:05;31.00;42.70
47590;DHT22;33316;52.298;9.056;2022-08-16T12:27:31;31.00;42.70
47590;DHT22;33316;52.298;9.056;2022-08-16T12:29:57;31.10;42.70
47590;DHT22;33316;52.298;9.056;2022-08-16T12:32:23;31.10;42.70
47590;DHT22;33316;52.298;9.056;2022-08-16T12:34:48;31.20;42.40
47590;DHT22;33316;52.298;9.056;2022-08-16T12:37:14;31.20;42.50
47590;DHT22;33316;52.298;9.056;2022-08-16T12:39:41;31.20;42.10
47590;DHT22;33316;52.298;9.056;2022-08-16T12:42:07;31.30;41.20
47590;DHT22;33316;52.298;9.056;2022-08-16T12:44:37;31.30;41.10
47590;DHT22;33316;52.298;9.056;2022-08-16T12:47:03;31.20;41.20
47590;DHT22;33316;52.298;9.056;2022-08-16T12:49:47;31.30;40.90
47590;DHT22;33316;52.298;9.056;2022-08-16T12:52:13;31.30;40.90
47590;DHT22;33316;52.298;9.056;2022-08-16T12:54:39;31.30;40.80
47590;DHT22;33316;52.298;9.056;2022-08-16T12:57:08;31.30;41.00
47590;DHT22;33316;52.298;9.056;2022-08-16T12:59:34;31.40;40.60
47590;DHT22;33316;52.298;9.056;2022-08-16T13:02:02;31.30;40.30
47590;DHT22;33316;52.298;9.056;2022-08-16T13:04:30;31.30;40.40
47590;DHT22;33316;52.298;9.056;2022-08-16T13:06:58;31.20;40.60
47590;DHT22;33316;52.298;9.056;2022-08-16T13:09:25;31.30;41.10
47590;DHT22;33316;52.298;9.056;2022-08-16T13:12:12;31.30;40.80
47590;DHT22;33316;52.298;9.056;2022-08-16T13:14:45;31.40;40.70
47590;DHT22;33316;52.298;9.056;2022-08-16T13:17:14;31.40;40.60
47590;DHT22;33316;52.298;9.056;2022-08-16T13:19:40;31.40;40.60
47590;DHT22;33316;52.298;9.056;2022-08-16T13:22:06;31.40;40.60
47590;DHT22;33316;52.298;9.056;2022-08-16T13:24:32;31.40;40.50
47590;DHT22;33316;52.298;9.056;2022-08-16T13:26:57;31.40;40.70
47590;DHT22;33316;52.298;9.056;2022-08-16T13:29:23;31.40;40.60
47590;DHT22;33316;52.298;9.056;2022-08-16T13:31:49;31.40;40.50
47590;DHT22;33316;52.298;9.056;2022-08-16T13:34:14;31.40;40.50
47590;DHT22;33316;52.298;9.056;2022-08-16T13:36:40;31.30;40.50
47590;DHT22;33316;52.298;9.056;2022-08-16T13:39:07;31.40;40.70
47590;DHT22;33316;52.298;9.056;2022-08-16T13:41:34;31.40;40.40
47590;DHT22;33316;52.298;9.056;2022-08-16T13:44:01;31.40;40.60
47590;DHT22;33316;52.298;9.056;2022-08-16T13:46:28;31.50;40.70
47590;DHT22;33316;52.298;9.056;2022-08-16T13:48:55;31.40;40.00
47590;DHT22;33316;52.298;9.056;2022-08-16T13:51:21;31.50;40.00
47590;DHT22;33316;52.298;9.056;2022-08-16T13:53:53;31.50;40.10
47590;DHT22;33316;52.298;9.056;2022-08-16T13:56:19;31.50;40.10
47590;DHT22;33316;52.298;9.056;2022-08-16T13:58:45;31.50;40.40
47590;DHT22;33316;52.298;9.056;2022-08-16T14:01:11;31.50;40.20
47590;DHT22;33316;52.298;9.056;2022-08-16T14:03:38;31.50;40.00
47590;DHT22;33316;52.298;9.056;2022-08-16T14:06:04;31.50;39.90
47590;DHT22;33316;52.298;9.056;2022-08-16T14:08:30;31.50;40.10
47590;DHT22;33316;52.298;9.056;2022-08-16T14:10:55;31.50;40.20
47590;DHT22;33316;52.298;9.056;2022-08-16T14:13:22;31.50;40.10
47590;DHT22;33316;52.298;9.056;2022-08-16T14:15:48;31.50;40.70
47590;DHT22;33316;52.298;9.056;2022-08-16T14:18:14;31.60;39.40
47590;DHT22;33316;52.298;9.056;2022-08-16T14:20:39;31.60;39.30
47590;DHT22;33316;52.298;9.056;2022-08-16T14:23:05;31.60;39.30
47590;DHT22;33316;52.298;9.056;2022-08-16T14:25:31;31.60;39.20
47590;DHT22;33316;52.298;9.056;2022-08-16T14:27:57;31.60;39.40
47590;DHT22;33316;52.298;9.056;2022-08-16T14:30:23;31.60;39.60
47590;DHT22;33316;52.298;9.056;2022-08-16T14:32:49;31.70;39.70
47590;DHT22;33316;52.298;9.056;2022-08-16T14:35:19;31.70;39.60
47590;DHT22;33316;52.298;9.056;2022-08-16T14:37:45;31.70;39.30
47590;DHT22;33316;52.298;9.056;2022-08-16T14:40:13;31.70;39.40
47590;DHT22;33316;52.298;9.056;2022-08-16T14:42:40;31.70;39.30
47590;DHT22;33316;52.298;9.056;2022-08-16T14:45:07;31.70;39.10
47590;DHT22;33316;52.298;9.056;2022-08-16T14:47:34;31.70;38.70
47590;DHT22;33316;52.298;9.056;2022-08-16T14:50:08;31.70;39.20
47590;DHT22;33316;52.298;9.056;2022-08-16T14:52:35;31.70;39.40
47590;DHT22;33316;52.298;9.056;2022-08-16T14:55:02;31.70;39.40
47590;DHT22;33316;52.298;9.056;2022-08-16T14:57:28;31.80;39.30
47590;DHT22;33316;52.298;9.056;2022-08-16T14:59:54;31.80;39.50
47590;DHT22;33316;52.298;9.056;2022-08-16T15:02:22;31.80;39.30
47590;DHT22;33316;52.298;9.056;2022-08-16T15:04:48;31.90;39.50
47590;DHT22;33316;52.298;9.056;2022-08-16T15:07:14;31.90;39.60
47590;DHT22;33316;52.298;9.056;2022-08-16T15:09:42;31.90;39.50
47590;DHT22;33316;52.298;9.056;2022-08-16T15:12:11;31.80;39.40
47590;DHT22;33316;52.298;9.056;2022-08-16T15:14:39;31.90;39.30
47590;DHT22;33316;52.298;9.056;2022-08-16T15:17:05;31.90;39.30
47590;DHT22;33316;52.298;9.056;2022-08-16T15:19:31;31.90;39.30
47590;DHT22;33316;52.298;9.056;2022-08-16T15:21:57;31.90;39.30
47590;DHT22;33316;52.298;9.056;2022-08-16T15:24:23;31.90;39.30
47590;DHT22;33316;52.298;9.056;2022-08-16T15:26:49;31.90;39.20